sensor_id;sensor_type;location;lat;lon;timestamp;temperature;humidity
14531;DHT22;7352;50.866;4.366;2023-05-10T00:00:58;15.40;99.90
14531;DHT22;7352;50.866;4.366;2023-05-10T00:03:25;15.60;99.90
14531;DHT22;7352;50.866;4.366;2023-05-10T00:05:52;15.60;99.90
14531;DHT22;7352;50.866;4.366;2023-05-10T00:08:19;15.70;99.90
14531;DHT22;7352;50.866;4.366;2023-05-10T00:10:46;15.50;99.90
14531;DHT22;7352;50.866;4.366;2023-05-10T00:13:13;15.30;99.90
14531;DHT22;7352;50.866;4.366;2023-05-10T00:15:40;15.30;99.90
14531;DHT22;7352;50.866;4.366;2023-05-10T00:18:09;15.20;99.90
14531;DHT22;7352;50.866;4.366;2023-05-10T00:20:36;15.20;99.90
14531;DHT22;7352;50.866;4.366;2023-05-10T00:23:03;15.30;99.90
14531;DHT22;7352;50.866;4.366;2023-05-10T00:25:30;15.40;99.90
14531;DHT22;7352;50.866;4.366;2023-05-10T00:27:57;15.40;99.90
14531;DHT22;7352;50.866;4.366;2023-05-10T00:30:24;15.30;99.90
14531;DHT22;7352;50.866;4.366;2023-05-10T00:32:51;15.40;99.90
14531;DHT22;7352;50.866;4.366;2023-05-10T00:35:20;15.20;99.90
14531;DHT22;7352;50.866;4.366;2023-05-10T00:37:47;15.40;99.90
14531;DHT22;7352;50.866;4.366;2023-05-10T00:40:14;15.50;99.90
14531;DHT22;7352;50.866;4.366;2023-05-10T00:42:41;15.40;99.90
14531;DHT22;7352;50.866;4.366;2023-05-10T00:45:08;15.30;99.90
14531;DHT22;7352;50.866;4.366;2023-05-10T00:47:37;15.30;99.90
14531;DHT22;7352;50.866;4.366;2023-05-10T00:50:05;15.40;99.90
14531;DHT22;7352;50.866;4.366;2023-05-10T00:52:34;15.60;99.90
14531;DHT22;7352;50.866;4.366;2023-05-10T00:55:01;15.60;99.90
14531;DHT22;7352;50.866;4.366;2023-05-10T00:57:28;15.60;99.90
14531;DHT22;7352;50.866;4.366;2023-05-10T00:59:59;15.40;99.90
14531;DHT22;7352;50.866;4.366;2023-05-10T01:02:26;15.40;99.90
14531;DHT22;7352;50.866;4.366;2023-05-10T01:04:53;15.30;99.90
14531;DHT22;7352;50.866;4.366;2023-05-10T01:07:21;15.30;99.90
14531;DHT22;7352;50.866;4.366;2023-05-10T01:09:50;15.30;99.90
14531;DHT22;7352;50.866;4.366;2023-05-10T01:12:17;15.40;99.90
14531;DHT22;7352;50.866;4.366;2023-05-10T01:14:44;15.60;99.90
14531;DHT22;7352;50.866;4.366;2023-05-10T01:17:12;15.50;99.90
14531;DHT22;7352;50.866;4.366;2023-05-10T01:19:40;15.30;99.90
14531;DHT22;7352;50.866;4.366;2023-05-10T01:22:18;15.10;99.90
14531;DHT22;7352;50.866;4.366;2023-05-10T01:25:10;15.20;99.90
14531;DHT22;7352;50.866;4.366;2023-05-10T01:30:56;15.20;99.90
14531;DHT22;7352;50.866;4.366;2023-05-10T01:33:35;15.10;99.90
14531;DHT22;7352;50.866;4.366;2023-05-10T01:36:07;15.00;99.90
14531;DHT22;7352;50.866;4.366;2023-05-10T01:38:42;15.00;99.90
14531;DHT22;7352;50.866;4.366;2023-05-10T01:41:18;15.10;99.90
14531;DHT22;7352;50.866;4.366;2023-05-10T01:43:55;15.00;99.90
14531;DHT22;7352;50.866;4.366;2023-05-10T01:46:27;15.00;99.90
14531;DHT22;7352;50.866;4.366;2023-05-10T01:48:58;15.10;99.90
14531;DHT22;7352;50.866;4.366;2023-05-10T01:51:35;15.20;99.90
14531;DHT22;7352;50.866;4.366;2023-05-10T01:54:03;15.20;99.90
14531;DHT22;7352;50.866;4.366;2023-05-10T01:56:35;15.10;99.90
14531;DHT22;7352;50.866;4.366;2023-05-10T01:59:06;15.20;99.90
14531;DHT22;7352;50.866;4.366;2023-05-10T02:01:36;15.20;99.90
14531;DHT22;7352;50.866;4.366;2023-05-10T02:04:06;15.20;99.90
14531;DHT22;7352;50.866;4.366;2023-05-10T02:06:34;15.20;99.90
14531;DHT22;7352;50.866;4.366;2023-05-10T02:09:03;15.30;99.90
14531;DHT22;7352;50.866;4.366;2023-05-10T02:11:31;15.30;99.90
14531;DHT22;7352;50.866;4.366;2023-05-10T02:13:59;15.40;99.90
14531;DHT22;7352;50.866;4.366;2023-05-10T02:16:27;15.50;99.90
14531;DHT22;7352;50.866;4.366;2023-05-10T02:18:59;15.40;99.90
14531;DHT22;7352;50.866;4.366;2023-05-10T02:21:30;15.30;99.90
14531;DHT22;7352;50.866;4.366;2023-05-10T02:23:59;15.20;99.90
14531;DHT22;7352;50.866;4.366;2023-05-10T02:26:28;15.30;99.90
14531;DHT22;7352;50.866;4.366;2023-05-10T02:28:57;15.30;99.90
14531;DHT22;7352;50.866;4.366;2023-05-10T02:31:26;15.20;99.90
14531;DHT22;7352;50.866;4.366;2023-05-10T02:33:54;15.30;99.90
14531;DHT22;7352;50.866;4.366;2023-05-10T02:36:22;15.20;99.90
14531;DHT22;7352;50.866;4.366;2023-05-10T02:38:51;15.20;99.90
14531;DHT22;7352;50.866;4.366;2023-05-10T02:41:20;15.30;99.90
14531;DHT22;7352;50.866;4.366;2023-05-10T02:43:50;15.30;99.90
14531;DHT22;7352;50.866;4.366;2023-05-10T02:46:19;15.30;99.90
14531;DHT22;7352;50.866;4.366;2023-05-10T02:48:46;15.20;99.90
14531;DHT22;7352;50.866;4.366;2023-05-10T02:51:15;15.20;99.90
14531;DHT22;7352;50.866;4.366;2023-05-10T02:53:45;15.20;99.90
14531;DHT22;7352;50.866;4.366;2023-05-10T02:56:23;15.30;99.90
14531;DHT22;7352;50.866;4.366;2023-05-10T02:58:50;15.20;99.90
14531;DHT22;7352;50.866;4.366;2023-05-10T03:01:17;15.20;99.90
14531;DHT22;7352;50.866;4.366;2023-05-10T03:03:44;15.30;99.90
14531;DHT22;7352;50.866;4.366;2023-05-10T03:06:11;15.40;99.90
14531;DHT22;7352;50.866;4.366;2023-05-10T03:08:38;15.30;99.90
14531;DHT22;7352;50.866;4.366;2023-05-10T03:11:26;15.30;99.90
14531;DHT22;7352;50.866;4.366;2023-05-10T03:14:07;15.40;99.90
14531;DHT22;7352;50.866;4.366;2023-05-10T03:16:40;15.30;99.90
14531;DHT22;7352;50.866;4.366;2023-05-10T03:19:17;15.20;99.90
14531;DHT22;7352;50.866;4.366;2023-05-10T03:21:51;15.30;99.90
14531;DHT22;7352;50.866;4.366;2023-05-10T03:24:22;15.30;99.90
14531;DHT22;7352;50.866;4.366;2023-05-10T03:26:54;15.20;99.90
14531;DHT22;7352;50.866;4.366;2023-05-10T03:29:22;15.30;99.90
14531;DHT22;7352;50.866;4.366;2023-05-10T03:31:52;15.20;99.90
14531;DHT22;7352;50.866;4.366;2023-05-10T03:34:23;15.20;99.90
14531;DHT22;7352;50.866;4.366;2023-05-10T03:36:50;15.20;99.90
14531;DHT22;7352;50.866;4.366;2023-05-10T03:39:19;15.10;99.90
14531;DHT22;7352;50.866;4.366;2023-05-10T03:41:47;15.00;99.90
14531;DHT22;7352;50.866;4.366;2023-05-10T03:44:18;15.00;99.90
14531;DHT22;7352;50.866;4.366;2023-05-10T03:46:45;14.80;99.90
14531;DHT22;7352;50.866;4.366;2023-05-10T03:49:12;14.90;99.90
14531;DHT22;7352;50.866;4.366;2023-05-10T03:51:39;14.80;99.90
14531;DHT22;7352;50.866;4.366;2023-05-10T03:54:06;14.90;99.90
14531;DHT22;7352;50.866;4.366;2023-05-10T03:56:33;14.90;99.90
14531;DHT22;7352;50.866;4.366;2023-05-10T03:59:00;14.80;99.90
14531;DHT22;7352;50.866;4.366;2023-05-10T04:01:28;14.80;99.90
14531;DHT22;7352;50.866;4.366;2023-05-10T04:03:55;14.80;99.90
14531;DHT22;7352;50.866;4.366;2023-05-10T04:06:22;14.80;99.90
14531;DHT22;7352;50.866;4.366;2023-05-10T04:08:49;14.80;99.90
14531;DHT22;7352;50.866;4.366;2023-05-10T04:11:17;15.00;99.90
14531;DHT22;7352;50.866;4.366;2023-05-10T04:13:44;15.10;99.90
14531;DHT22;7352;50.866;4.366;2023-05-10T04:16:11;15.20;99.90
14531;DHT22;7352;50.866;4.366;2023-05-10T04:18:40;15.10;99.90
14531;DHT22;7352;50.866;4.366;2023-05-10T04:21:11;15.10;99.90
14531;DHT22;7352;50.866;4.366;2023-05-10T04:23:39;15.10;99.90
14531;DHT22;7352;50.866;4.366;2023-05-10T04:26:06;15.10;99.90
14531;DHT22;7352;50.866;4.366;2023-05-10T04:28:33;15.20;99.90
14531;DHT22;7352;50.866;4.366;2023-05-10T04:31:01;15.20;99.90
14531;DHT22;7352;50.866;4.366;2023-05-10T04:33:30;15.20;99.90
14531;DHT22;7352;50.866;4.366;2023-05-10T04:36:01;15.40;99.90
14531;DHT22;7352;50.866;4.366;2023-05-10T04:38:28;15.30;99.90
14531;DHT22;7352;50.866;4.366;2023-05-10T04:41:04;15.30;99.90
14531;DHT22;7352;50.866;4.366;2023-05-10T04:43:31;15.30;99.90
14531;DHT22;7352;50.866;4.366;2023-05-10T04:45:58;15.50;99.90
14531;DHT22;7352;50.866;4.366;2023-05-10T04:48:25;15.40;99.90
14531;DHT22;7352;50.866;4.366;2023-05-10T04:50:52;15.40;99.90
14531;DHT22;7352;50.866;4.366;2023-05-10T04:53:21;15.30;99.90
14531;DHT22;7352;50.866;4.366;2023-05-10T04:55:48;15.30;99.90
14531;DHT22;7352;50.866;4.366;2023-05-10T04:58:15;15.30;99.90
14531;DHT22;7352;50.866;4.366;2023-05-10T05:00:42;15.40;99.90
14531;DHT22;7352;50.866;4.366;2023-05-10T05:03:09;15.50;99.90
14531;DHT22;7352;50.866;4.366;2023-05-10T05:05:36;15.60;99.90
14531;DHT22;7352;50.866;4.366;2023-05-10T05:08:04;15.40;99.90
14531;DHT22;7352;50.866;4.366;2023-05-10T05:10:32;15.40;99.90
14531;DHT22;7352;50.866;4.366;2023-05-10T05:12:59;15.50;99.90
14531;DHT22;7352;50.866;4.366;2023-05-10T05:15:26;15.60;99.90
14531;DHT22;7352;50.866;4.366;2023-05-10T05:17:53;15.50;99.90
14531;DHT22;7352;50.866;4.366;2023-05-10T05:20:20;15.60;99.90
14531;DHT22;7352;50.866;4.366;2023-05-10T05:22:47;15.60;99.90
14531;DHT22;7352;50.866;4.366;2023-05-10T05:25:15;15.60;99.90
14531;DHT22;7352;50.866;4.366;2023-05-10T05:27:44;15.70;99.90
14531;DHT22;7352;50.866;4.366;2023-05-10T05:30:11;15.80;99.90
14531;DHT22;7352;50.866;4.366;2023-05-10T05:32:38;15.70;99.90
14531;DHT22;7352;50.866;4.366;2023-05-10T05:35:06;15.80;99.90
14531;DHT22;7352;50.866;4.366;2023-05-10T05:37:33;15.80;99.90
14531;DHT22;7352;50.866;4.366;2023-05-10T05:40:01;15.80;99.90
14531;DHT22;7352;50.866;4.366;2023-05-10T05:42:28;15.80;99.90
14531;DHT22;7352;50.866;4.366;2023-05-10T05:44:57;16.00;99.90
14531;DHT22;7352;50.866;4.366;2023-05-10T05:47:25;15.90;99.90
14531;DHT22;7352;50.866;4.366;2023-05-10T05:49:51;15.90;99.90
14531;DHT22;7352;50.866;4.366;2023-05-10T05:52:19;15.70;99.90
14531;DHT22;7352;50.866;4.366;2023-05-10T05:54:46;15.60;99.90
14531;DHT22;7352;50.866;4.366;2023-05-10T05:57:13;15.60;99.90
14531;DHT22;7352;50.866;4.366;2023-05-10T05:59:40;15.80;99.90
14531;DHT22;7352;50.866;4.366;2023-05-10T06:02:10;15.90;99.90
14531;DHT22;7352;50.866;4.366;2023-05-10T06:04:37;16.10;99.90
14531;DHT22;7352;50.866;4.366;2023-05-10T06:07:05;16.10;99.90
14531;DHT22;7352;50.866;4.366;2023-05-10T06:09:32;16.30;99.90
14531;DHT22;7352;50.866;4.366;2023-05-10T06:11:58;16.40;99.90
14531;DHT22;7352;50.866;4.366;2023-05-10T06:14:26;16.20;99.90
14531;DHT22;7352;50.866;4.366;2023-05-10T06:16:53;16.20;99.90
14531;DHT22;7352;50.866;4.366;2023-05-10T06:19:21;16.30;99.90
14531;DHT22;7352;50.866;4.366;2023-05-10T06:21:48;16.40;99.90
14531;DHT22;7352;50.866;4.366;2023-05-10T06:24:15;16.40;99.90
14531;DHT22;7352;50.866;4.366;2023-05-10T06:26:42;16.40;99.90
14531;DHT22;7352;50.866;4.366;2023-05-10T06:29:09;16.50;99.90
14531;DHT22;7352;50.866;4.366;2023-05-10T06:31:37;16.50;99.90
14531;DHT22;7352;50.866;4.366;2023-05-10T06:34:04;16.60;99.90
14531;DHT22;7352;50.866;4.366;2023-05-10T06:36:35;16.50;99.90
14531;DHT22;7352;50.866;4.366;2023-05-10T06:39:02;16.60;99.90
14531;DHT22;7352;50.866;4.366;2023-05-10T06:41:29;16.50;99.90
14531;DHT22;7352;50.866;4.366;2023-05-10T06:43:56;16.30;99.90
14531;DHT22;7352;50.866;4.366;2023-05-10T06:46:22;16.10;99.90
14531;DHT22;7352;50.866;4.366;2023-05-10T06:48:49;15.90;99.90
14531;DHT22;7352;50.866;4.366;2023-05-10T06:51:17;15.90;99.90
14531;DHT22;7352;50.866;4.366;2023-05-10T06:53:46;15.70;99.90
14531;DHT22;7352;50.866;4.366;2023-05-10T06:56:13;15.50;99.90
14531;DHT22;7352;50.866;4.366;2023-05-10T06:58:40;15.40;99.90
14531;DHT22;7352;50.866;4.366;2023-05-10T07:01:06;15.50;99.90
14531;DHT22;7352;50.866;4.366;2023-05-10T07:03:33;15.50;99.90
14531;DHT22;7352;50.866;4.366;2023-05-10T07:06:01;15.20;99.90
14531;DHT22;7352;50.866;4.366;2023-05-10T07:08:30;15.30;99.90
14531;DHT22;7352;50.866;4.366;2023-05-10T07:11:02;15.20;99.90
14531;DHT22;7352;50.866;4.366;2023-05-10T07:13:30;15.20;99.90
14531;DHT22;7352;50.866;4.366;2023-05-10T07:15:58;15.20;99.90
14531;DHT22;7352;50.866;4.366;2023-05-10T07:18:25;15.20;99.90
14531;DHT22;7352;50.866;4.366;2023-05-10T07:20:52;15.20;99.90
14531;DHT22;7352;50.866;4.366;2023-05-10T07:23:20;15.20;99.90
14531;DHT22;7352;50.866;4.366;2023-05-10T07:25:48;15.30;99.90
14531;DHT22;7352;50.866;4.366;2023-05-10T07:28:19;15.30;99.90
14531;DHT22;7352;50.866;4.366;2023-05-10T07:30:46;15.10;99.90
14531;DHT22;7352;50.866;4.366;2023-05-10T07:33:14;15.10;99.90
14531;DHT22;7352;50.866;4.366;2023-05-10T07:35:41;15.10;99.90
14531;DHT22;7352;50.866;4.366;2023-05-10T07:38:09;15.00;99.90
14531;DHT22;7352;50.866;4.366;2023-05-10T07:40:36;15.10;99.90
14531;DHT22;7352;50.866;4.366;2023-05-10T07:43:03;15.10;99.90
14531;DHT22;7352;50.866;4.366;2023-05-10T07:45:32;15.10;99.90
14531;DHT22;7352;50.866;4.366;2023-05-10T07:47:59;15.10;99.90
14531;DHT22;7352;50.866;4.366;2023-05-10T07:50:26;15.00;99.90
14531;DHT22;7352;50.866;4.366;2023-05-10T07:52:55;14.90;99.90
14531;DHT22;7352;50.866;4.366;2023-05-10T07:55:22;15.00;99.90
14531;DHT22;7352;50.866;4.366;2023-05-10T07:57:49;15.10;99.90
14531;DHT22;7352;50.866;4.366;2023-05-10T08:00:18;15.50;99.90
14531;DHT22;7352;50.866;4.366;2023-05-10T08:02:47;15.80;99.90
14531;DHT22;7352;50.866;4.366;2023-05-10T08:05:14;16.00;99.90
14531;DHT22;7352;50.866;4.366;2023-05-10T08:07:41;16.20;99.90
14531;DHT22;7352;50.866;4.366;2023-05-10T08:10:10;16.10;99.90
14531;DHT22;7352;50.866;4.366;2023-05-10T08:12:38;15.90;99.90
14531;DHT22;7352;50.866;4.366;2023-05-10T08:15:06;15.80;99.90
14531;DHT22;7352;50.866;4.366;2023-05-10T08:17:33;15.80;99.90
14531;DHT22;7352;50.866;4.366;2023-05-10T08:20:01;15.60;99.90
14531;DHT22;7352;50.866;4.366;2023-05-10T08:22:28;15.70;99.90
14531;DHT22;7352;50.866;4.366;2023-05-10T08:24:55;15.80;99.90
14531;DHT22;7352;50.866;4.366;2023-05-10T08:27:22;15.90;99.90
14531;DHT22;7352;50.866;4.366;2023-05-10T08:29:49;16.00;99.90
14531;DHT22;7352;50.866;4.366;2023-05-10T08:32:16;16.10;99.90
14531;DHT22;7352;50.866;4.366;2023-05-10T08:34:44;16.10;99.90
14531;DHT22;7352;50.866;4.366;2023-05-10T08:37:12;16.20;99.90
14531;DHT22;7352;50.866;4.366;2023-05-10T08:39:39;16.20;99.90
14531;DHT22;7352;50.866;4.366;2023-05-10T08:42:09;16.40;99.90
14531;DHT22;7352;50.866;4.366;2023-05-10T08:44:36;16.60;99.90
14531;DHT22;7352;50.866;4.366;2023-05-10T08:47:05;16.80;99.90
14531;DHT22;7352;50.866;4.366;2023-05-10T08:49:33;16.90;99.90
14531;DHT22;7352;50.866;4.366;2023-05-10T08:52:03;17.10;99.90
14531;DHT22;7352;50.866;4.366;2023-05-10T08:54:33;17.10;99.90
14531;DHT22;7352;50.866;4.366;2023-05-10T08:57:00;17.00;99.90
14531;DHT22;7352;50.866;4.366;2023-05-10T08:59:27;16.70;99.90
14531;DHT22;7352;50.866;4.366;2023-05-10T09:01:57;16.60;99.90
14531;DHT22;7352;50.866;4.366;2023-05-10T09:04:25;16.70;99.90
14531;DHT22;7352;50.866;4.366;2023-05-10T09:06:53;16.80;99.90
14531;DHT22;7352;50.866;4.366;2023-05-10T09:09:21;16.60;99.90
14531;DHT22;7352;50.866;4.366;2023-05-10T09:11:54;16.40;99.90
14531;DHT22;7352;50.866;4.366;2023-05-10T09:14:22;16.50;99.90
14531;DHT22;7352;50.866;4.366;2023-05-10T09:16:50;16.50;99.90
14531;DHT22;7352;50.866;4.366;2023-05-10T09:19:17;16.50;99.90
14531;DHT22;7352;50.866;4.366;2023-05-10T09:21:44;16.60;99.90
14531;DHT22;7352;50.866;4.366;2023-05-10T09:24:12;16.60;99.90
14531;DHT22;7352;50.866;4.366;2023-05-10T09:26:46;16.40;99.90
14531;DHT22;7352;50.866;4.366;2023-05-10T09:29:15;16.30;99.90
14531;DHT22;7352;50.866;4.366;2023-05-10T09:31:46;16.20;99.90
14531;DHT22;7352;50.866;4.366;2023-05-10T09:34:16;16.30;99.90
14531;DHT22;7352;50.866;4.366;2023-05-10T09:36:54;16.00;99.90
14531;DHT22;7352;50.866;4.366;2023-05-10T09:39:30;16.20;99.90
14531;DHT22;7352;50.866;4.366;2023-05-10T09:41:58;15.80;99.90
14531;DHT22;7352;50.866;4.366;2023-05-10T09:44:31;15.80;99.90
14531;DHT22;7352;50.866;4.366;2023-05-10T09:46:59;15.80;99.90
14531;DHT22;7352;50.866;4.366;2023-05-10T09:49:26;16.00;99.90
14531;DHT22;7352;50.866;4.366;2023-05-10T09:52:00;15.90;99.90
14531;DHT22;7352;50.866;4.366;2023-05-10T09:54:28;15.90;99.90
14531;DHT22;7352;50.866;4.366;2023-05-10T09:56:55;15.70;99.90
14531;DHT22;7352;50.866;4.366;2023-05-10T09:59:25;15.70;99.90
14531;DHT22;7352;50.866;4.366;2023-05-10T10:01:57;15.80;99.90
14531;DHT22;7352;50.866;4.366;2023-05-10T10:04:26;16.00;99.90
14531;DHT22;7352;50.866;4.366;2023-05-10T10:07:00;16.10;99.90
14531;DHT22;7352;50.866;4.366;2023-05-10T10:09:27;16.20;99.90
14531;DHT22;7352;50.866;4.366;2023-05-10T10:11:54;16.20;99.90
14531;DHT22;7352;50.866;4.366;2023-05-10T10:14:22;16.20;99.90
14531;DHT22;7352;50.866;4.366;2023-05-10T10:16:49;16.20;99.90
14531;DHT22;7352;50.866;4.366;2023-05-10T10:19:18;16.10;99.90
14531;DHT22;7352;50.866;4.366;2023-05-10T10:21:46;15.90;99.90
14531;DHT22;7352;50.866;4.366;2023-05-10T10:24:13;16.00;99.90
14531;DHT22;7352;50.866;4.366;2023-05-10T10:26:41;15.90;99.90
14531;DHT22;7352;50.866;4.366;2023-05-10T10:29:15;16.00;99.90
14531;DHT22;7352;50.866;4.366;2023-05-10T10:31:47;16.20;99.90
14531;DHT22;7352;50.866;4.366;2023-05-10T10:34:25;16.30;99.90
14531;DHT22;7352;50.866;4.366;2023-05-10T10:36:55;16.50;99.90
14531;DHT22;7352;50.866;4.366;2023-05-10T10:39:24;16.60;99.90
14531;DHT22;7352;50.866;4.366;2023-05-10T10:41:52;16.60;99.90
14531;DHT22;7352;50.866;4.366;2023-05-10T10:44:33;16.60;99.90
14531;DHT22;7352;50.866;4.366;2023-05-10T10:47:02;16.80;99.90
14531;DHT22;7352;50.866;4.366;2023-05-10T10:49:33;16.70;99.90
14531;DHT22;7352;50.866;4.366;2023-05-10T10:52:20;16.90;99.90
14531;DHT22;7352;50.866;4.366;2023-05-10T10:54:50;17.00;99.90
14531;DHT22;7352;50.866;4.366;2023-05-10T10:57:19;17.10;99.90
14531;DHT22;7352;50.866;4.366;2023-05-10T10:59:47;17.10;99.90
14531;DHT22;7352;50.866;4.366;2023-05-10T11:02:33;17.00;99.90
14531;DHT22;7352;50.866;4.366;2023-05-10T11:08:19;17.10;99.90
14531;DHT22;7352;50.866;4.366;2023-05-10T11:11:05;17.20;99.90
14531;DHT22;7352;50.866;4.366;2023-05-10T11:13:41;17.00;99.90
14531;DHT22;7352;50.866;4.366;2023-05-10T11:16:18;17.10;99.90
14531;DHT22;7352;50.866;4.366;2023-05-10T11:18:53;17.10;99.90
14531;DHT22;7352;50.866;4.366;2023-05-10T11:21:22;17.20;99.90
14531;DHT22;7352;50.866;4.366;2023-05-10T11:23:51;17.30;99.90
14531;DHT22;7352;50.866;4.366;2023-05-10T11:26:21;17.30;99.90
14531;DHT22;7352;50.866;4.366;2023-05-10T11:28:51;17.20;99.90
14531;DHT22;7352;50.866;4.366;2023-05-10T11:31:19;17.20;99.90
14531;DHT22;7352;50.866;4.366;2023-05-10T11:33:48;17.20;99.90
14531;DHT22;7352;50.866;4.366;2023-05-10T11:36:17;17.00;99.90
14531;DHT22;7352;50.866;4.366;2023-05-10T11:38:46;17.30;99.90
14531;DHT22;7352;50.866;4.366;2023-05-10T11:41:16;17.40;99.90
14531;DHT22;7352;50.866;4.366;2023-05-10T11:43:46;17.40;99.90
14531;DHT22;7352;50.866;4.366;2023-05-10T11:46:16;17.40;99.90
14531;DHT22;7352;50.866;4.366;2023-05-10T11:48:46;17.40;99.90
14531;DHT22;7352;50.866;4.366;2023-05-10T11:51:14;17.50;99.90
14531;DHT22;7352;50.866;4.366;2023-05-10T11:53:41;17.70;99.90
14531;DHT22;7352;50.866;4.366;2023-05-10T11:56:10;17.70;99.90
14531;DHT22;7352;50.866;4.366;2023-05-10T11:58:39;17.70;99.90
14531;DHT22;7352;50.866;4.366;2023-05-10T12:01:07;17.70;99.90
14531;DHT22;7352;50.866;4.366;2023-05-10T12:03:36;17.70;99.90
14531;DHT22;7352;50.866;4.366;2023-05-10T12:06:03;17.80;99.90
14531;DHT22;7352;50.866;4.366;2023-05-10T12:08:31;17.80;99.90
14531;DHT22;7352;50.866;4.366;2023-05-10T12:11:05;17.80;99.90
14531;DHT22;7352;50.866;4.366;2023-05-10T12:13:37;18.00;99.90
14531;DHT22;7352;50.866;4.366;2023-05-10T12:16:16;17.90;99.90
14531;DHT22;7352;50.866;4.366;2023-05-10T12:18:43;17.90;99.90
14531;DHT22;7352;50.866;4.366;2023-05-10T12:21:11;18.00;99.90
14531;DHT22;7352;50.866;4.366;2023-05-10T12:23:38;18.00;99.90
14531;DHT22;7352;50.866;4.366;2023-05-10T12:26:06;17.90;99.90
14531;DHT22;7352;50.866;4.366;2023-05-10T12:28:34;17.90;99.90
14531;DHT22;7352;50.866;4.366;2023-05-10T12:31:02;18.00;99.90
14531;DHT22;7352;50.866;4.366;2023-05-10T12:33:35;18.10;99.90
14531;DHT22;7352;50.866;4.366;2023-05-10T12:36:06;18.10;99.90
14531;DHT22;7352;50.866;4.366;2023-05-10T12:38:34;18.00;99.90
14531;DHT22;7352;50.866;4.366;2023-05-10T12:41:04;18.20;99.90
14531;DHT22;7352;50.866;4.366;2023-05-10T12:43:32;18.20;99.90
14531;DHT22;7352;50.866;4.366;2023-05-10T12:46:04;18.30;99.90
14531;DHT22;7352;50.866;4.366;2023-05-10T12:48:31;18.50;99.90
14531;DHT22;7352;50.866;4.366;2023-05-10T12:50:59;18.60;99.90
14531;DHT22;7352;50.866;4.366;2023-05-10T12:53:26;18.90;99.90
14531;DHT22;7352;50.866;4.366;2023-05-10T12:55:53;18.90;99.90
14531;DHT22;7352;50.866;4.366;2023-05-10T12:58:20;19.00;99.90
14531;DHT22;7352;50.866;4.366;2023-05-10T13:00:47;19.20;99.90
14531;DHT22;7352;50.866;4.366;2023-05-10T13:03:18;19.30;99.90
14531;DHT22;7352;50.866;4.366;2023-05-10T13:05:46;19.30;99.90
14531;DHT22;7352;50.866;4.366;2023-05-10T13:08:13;19.40;99.90
14531;DHT22;7352;50.866;4.366;2023-05-10T13:10:40;19.50;99.90
14531;DHT22;7352;50.866;4.366;2023-05-10T13:13:07;19.50;99.90
14531;DHT22;7352;50.866;4.366;2023-05-10T13:15:36;19.70;99.90
14531;DHT22;7352;50.866;4.366;2023-05-10T13:18:03;19.90;99.90
14531;DHT22;7352;50.866;4.366;2023-05-10T13:20:35;20.20;99.90
14531;DHT22;7352;50.866;4.366;2023-05-10T13:23:03;20.30;99.90
14531;DHT22;7352;50.866;4.366;2023-05-10T13:25:30;20.50;99.90
14531;DHT22;7352;50.866;4.366;2023-05-10T13:27:57;20.60;99.90
14531;DHT22;7352;50.866;4.366;2023-05-10T13:30:25;20.70;99.90
14531;DHT22;7352;50.866;4.366;2023-05-10T13:32:55;21.00;99.90
14531;DHT22;7352;50.866;4.366;2023-05-10T13:35:22;21.00;99.90
14531;DHT22;7352;50.866;4.366;2023-05-10T13:37:51;21.00;99.90
14531;DHT22;7352;50.866;4.366;2023-05-10T13:40:20;21.20;99.90
14531;DHT22;7352;50.866;4.366;2023-05-10T13:42:47;21.10;99.90
14531;DHT22;7352;50.866;4.366;2023-05-10T13:45:15;21.00;99.90
14531;DHT22;7352;50.866;4.366;2023-05-10T13:47:43;21.00;99.90
14531;DHT22;7352;50.866;4.366;2023-05-10T13:50:10;20.70;99.90
14531;DHT22;7352;50.866;4.366;2023-05-10T13:52:37;20.80;99.90
14531;DHT22;7352;50.866;4.366;2023-05-10T13:55:06;20.90;99.90
14531;DHT22;7352;50.866;4.366;2023-05-10T13:57:33;20.80;99.90
14531;DHT22;7352;50.866;4.366;2023-05-10T14:00:03;20.80;99.90
14531;DHT22;7352;50.866;4.366;2023-05-10T14:02:31;20.70;99.90
14531;DHT22;7352;50.866;4.366;2023-05-10T14:04:59;20.60;99.90
14531;DHT22;7352;50.866;4.366;2023-05-10T14:07:26;20.60;99.90
14531;DHT22;7352;50.866;4.366;2023-05-10T14:09:55;20.50;99.90
14531;DHT22;7352;50.866;4.366;2023-05-10T14:12:23;20.60;99.90
14531;DHT22;7352;50.866;4.366;2023-05-10T14:14:50;20.60;99.90
14531;DHT22;7352;50.866;4.366;2023-05-10T14:17:18;20.50;99.90
14531;DHT22;7352;50.866;4.366;2023-05-10T14:19:45;20.40;99.90
14531;DHT22;7352;50.866;4.366;2023-05-10T14:22:12;20.40;99.90
14531;DHT22;7352;50.866;4.366;2023-05-10T14:24:39;20.40;99.90
14531;DHT22;7352;50.866;4.366;2023-05-10T14:27:08;20.50;99.90
14531;DHT22;7352;50.866;4.366;2023-05-10T14:29:40;20.60;99.90
14531;DHT22;7352;50.866;4.366;2023-05-10T14:32:07;20.80;99.90
14531;DHT22;7352;50.866;4.366;2023-05-10T14:34:35;20.70;99.90
14531;DHT22;7352;50.866;4.366;2023-05-10T14:37:02;20.70;99.90
14531;DHT22;7352;50.866;4.366;2023-05-10T14:39:32;20.60;99.90
14531;DHT22;7352;50.866;4.366;2023-05-10T14:41:59;20.20;99.90
14531;DHT22;7352;50.866;4.366;2023-05-10T14:44:28;20.20;99.90
14531;DHT22;7352;50.866;4.366;2023-05-10T14:46:56;20.10;99.90
14531;DHT22;7352;50.866;4.366;2023-05-10T14:49:23;19.90;99.90
14531;DHT22;7352;50.866;4.366;2023-05-10T14:51:51;19.80;99.90
14531;DHT22;7352;50.866;4.366;2023-05-10T14:54:18;19.70;99.90
14531;DHT22;7352;50.866;4.366;2023-05-10T14:56:46;19.60;99.90
14531;DHT22;7352;50.866;4.366;2023-05-10T14:59:15;19.40;99.90
14531;DHT22;7352;50.866;4.366;2023-05-10T15:01:45;19.30;99.90
14531;DHT22;7352;50.866;4.366;2023-05-10T15:04:13;19.10;99.90
14531;DHT22;7352;50.866;4.366;2023-05-10T15:06:42;18.80;99.90
14531;DHT22;7352;50.866;4.366;2023-05-10T15:09:10;18.60;99.90
14531;DHT22;7352;50.866;4.366;2023-05-10T15:11:44;18.60;99.90
14531;DHT22;7352;50.866;4.366;2023-05-10T15:14:17;18.60;99.90
14531;DHT22;7352;50.866;4.366;2023-05-10T15:16:48;18.70;99.90
14531;DHT22;7352;50.866;4.366;2023-05-10T15:19:17;18.60;99.90
14531;DHT22;7352;50.866;4.366;2023-05-10T15:21:44;18.70;99.90
14531;DHT22;7352;50.866;4.366;2023-05-10T15:24:13;18.60;99.90
14531;DHT22;7352;50.866;4.366;2023-05-10T15:26:41;18.60;99.90
14531;DHT22;7352;50.866;4.366;2023-05-10T15:29:09;18.60;99.90
14531;DHT22;7352;50.866;4.366;2023-05-10T15:31:36;18.50;99.90
14531;DHT22;7352;50.866;4.366;2023-05-10T15:34:05;18.60;99.90
14531;DHT22;7352;50.866;4.366;2023-05-10T15:36:35;18.60;99.90
14531;DHT22;7352;50.866;4.366;2023-05-10T15:39:04;18.60;99.90
14531;DHT22;7352;50.866;4.366;2023-05-10T15:41:31;18.50;99.90
14531;DHT22;7352;50.866;4.366;2023-05-10T15:43:58;18.40;99.90
14531;DHT22;7352;50.866;4.366;2023-05-10T15:46:26;18.30;99.90
14531;DHT22;7352;50.866;4.366;2023-05-10T15:48:55;18.40;99.90
14531;DHT22;7352;50.866;4.366;2023-05-10T15:51:26;18.50;99.90
14531;DHT22;7352;50.866;4.366;2023-05-10T15:53:55;18.50;99.90
14531;DHT22;7352;50.866;4.366;2023-05-10T15:56:27;18.70;99.90
14531;DHT22;7352;50.866;4.366;2023-05-10T15:58:54;19.20;99.90
14531;DHT22;7352;50.866;4.366;2023-05-10T16:01:22;19.60;99.90